Abegondo, Spain
Current Conditions -  °F | °C
As of 11:30 PM on Monday 26 Jan 2015 (Local Time) from LECO Reporting Station
Broken Clouds Broken Clouds  
Wind Chill: 48°   Ceiling: 3400
Heat Index: 48°   Visibility: 6mi
Dew Point: 46°   Wind: 0mph
Humidity: 93%   Direction: NA
Pressure: 30.56"   Gusts: NA
Location:  43.22°N, 8.28°W
Report Text: LECO 262230Z 00000KT 9999 BKN034 09/08 Q1035 NOSIG
Loading
Personal Weather Stations






























Interactive Weather Map New forecast layout! Learn more

10-Day Weather Forecast

Advertisements
Track Severe Weather on mobile